sensor_id;sensor_type;location;lat;lon;timestamp;temperature;humidity
6291;DHT22;3178;48.730;8.990;2022-12-18T00:02:14;-10.60;99.90
6291;DHT22;3178;48.730;8.990;2022-12-18T00:04:39;-10.60;99.90
6291;DHT22;3178;48.730;8.990;2022-12-18T00:07:05;-10.60;99.90
6291;DHT22;3178;48.730;8.990;2022-12-18T00:09:31;-10.70;99.90
6291;DHT22;3178;48.730;8.990;2022-12-18T00:11:56;-10.70;99.90
6291;DHT22;3178;48.730;8.990;2022-12-18T00:14:22;-10.70;99.90
6291;DHT22;3178;48.730;8.990;2022-12-18T00:16:47;-10.70;99.90
6291;DHT22;3178;48.730;8.990;2022-12-18T00:19:14;-10.80;99.90
6291;DHT22;3178;48.730;8.990;2022-12-18T00:21:40;-10.90;99.90
6291;DHT22;3178;48.730;8.990;2022-12-18T00:24:06;-10.90;99.90
6291;DHT22;3178;48.730;8.990;2022-12-18T00:26:33;-10.90;99.90
6291;DHT22;3178;48.730;8.990;2022-12-18T00:29:09;-10.90;99.90
6291;DHT22;3178;48.730;8.990;2022-12-18T00:31:36;-10.80;99.90
6291;DHT22;3178;48.730;8.990;2022-12-18T00:34:02;-10.90;99.90
6291;DHT22;3178;48.730;8.990;2022-12-18T00:36:31;-10.90;99.90
6291;DHT22;3178;48.730;8.990;2022-12-18T00:38:58;-11.00;99.90
6291;DHT22;3178;48.730;8.990;2022-12-18T00:41:24;-11.00;99.90
6291;DHT22;3178;48.730;8.990;2022-12-18T00:44:11;-11.10;99.90
6291;DHT22;3178;48.730;8.990;2022-12-18T00:46:37;-11.10;99.90
6291;DHT22;3178;48.730;8.990;2022-12-18T00:49:03;-11.10;99.90
6291;DHT22;3178;48.730;8.990;2022-12-18T00:51:28;-11.10;99.90
6291;DHT22;3178;48.730;8.990;2022-12-18T00:53:54;-11.00;99.90
6291;DHT22;3178;48.730;8.990;2022-12-18T00:56:21;-11.00;99.90
6291;DHT22;3178;48.730;8.990;2022-12-18T00:58:47;-11.00;99.90
6291;DHT22;3178;48.730;8.990;2022-12-18T01:01:13;-11.10;99.90
6291;DHT22;3178;48.730;8.990;2022-12-18T01:03:39;-11.10;99.90
6291;DHT22;3178;48.730;8.990;2022-12-18T01:06:10;-11.20;99.90
6291;DHT22;3178;48.730;8.990;2022-12-18T01:08:37;-11.10;99.90
6291;DHT22;3178;48.730;8.990;2022-12-18T01:11:11;-11.10;99.90
6291;DHT22;3178;48.730;8.990;2022-12-18T01:13:37;-11.10;99.90
6291;DHT22;3178;48.730;8.990;2022-12-18T01:16:03;-11.10;99.90
6291;DHT22;3178;48.730;8.990;2022-12-18T01:18:29;-11.10;99.90
6291;DHT22;3178;48.730;8.990;2022-12-18T01:20:54;-11.10;99.90
6291;DHT22;3178;48.730;8.990;2022-12-18T01:23:20;-11.20;99.90
6291;DHT22;3178;48.730;8.990;2022-12-18T01:25:45;-11.30;99.90
6291;DHT22;3178;48.730;8.990;2022-12-18T01:28:11;-11.20;99.90
6291;DHT22;3178;48.730;8.990;2022-12-18T01:30:36;-11.20;99.90
6291;DHT22;3178;48.730;8.990;2022-12-18T01:33:04;-11.20;99.90
6291;DHT22;3178;48.730;8.990;2022-12-18T01:35:30;-11.10;99.90
6291;DHT22;3178;48.730;8.990;2022-12-18T01:37:56;-11.20;99.90
6291;DHT22;3178;48.730;8.990;2022-12-18T01:40:21;-11.20;99.90
6291;DHT22;3178;48.730;8.990;2022-12-18T01:42:53;-11.30;99.90
6291;DHT22;3178;48.730;8.990;2022-12-18T01:45:28;-11.20;99.90
6291;DHT22;3178;48.730;8.990;2022-12-18T01:47:57;-11.30;99.90
6291;DHT22;3178;48.730;8.990;2022-12-18T01:50:40;-11.30;99.90
6291;DHT22;3178;48.730;8.990;2022-12-18T01:53:11;-11.30;99.90
6291;DHT22;3178;48.730;8.990;2022-12-18T01:55:45;-11.20;99.90
6291;DHT22;3178;48.730;8.990;2022-12-18T01:58:11;-11.20;99.90
6291;DHT22;3178;48.730;8.990;2022-12-18T02:00:37;-11.10;99.90
6291;DHT22;3178;48.730;8.990;2022-12-18T02:03:03;-11.00;99.90
6291;DHT22;3178;48.730;8.990;2022-12-18T02:05:44;-11.00;99.90
6291;DHT22;3178;48.730;8.990;2022-12-18T02:08:19;-10.90;99.90
6291;DHT22;3178;48.730;8.990;2022-12-18T02:11:02;-10.90;99.90
6291;DHT22;3178;48.730;8.990;2022-12-18T02:14:38;-10.90;99.90
6291;DHT22;3178;48.730;8.990;2022-12-18T02:16:51;-10.80;99.90
6291;DHT22;3178;48.730;8.990;2022-12-18T02:22:49;-10.70;99.90
6291;DHT22;3178;48.730;8.990;2022-12-18T02:28:19;-10.60;99.90
6291;DHT22;3178;48.730;8.990;2022-12-18T02:30:48;-10.60;99.90
6291;DHT22;3178;48.730;8.990;2022-12-18T02:33:14;-10.50;99.90
6291;DHT22;3178;48.730;8.990;2022-12-18T02:35:41;-10.60;99.90
6291;DHT22;3178;48.730;8.990;2022-12-18T02:38:07;-10.50;99.90
6291;DHT22;3178;48.730;8.990;2022-12-18T02:40:33;-10.50;99.90
6291;DHT22;3178;48.730;8.990;2022-12-18T02:43:06;-10.50;99.90
6291;DHT22;3178;48.730;8.990;2022-12-18T02:45:32;-10.50;99.90
6291;DHT22;3178;48.730;8.990;2022-12-18T02:47:58;-10.60;99.90
6291;DHT22;3178;48.730;8.990;2022-12-18T02:50:37;-10.60;99.90
6291;DHT22;3178;48.730;8.990;2022-12-18T02:56:21;-10.60;99.90
6291;DHT22;3178;48.730;8.990;2022-12-18T03:02:22;-10.60;99.90
6291;DHT22;3178;48.730;8.990;2022-12-18T03:04:31;-10.50;99.90
6291;DHT22;3178;48.730;8.990;2022-12-18T03:07:03;-10.50;99.90
6291;DHT22;3178;48.730;8.990;2022-12-18T03:09:34;-10.50;99.90
6291;DHT22;3178;48.730;8.990;2022-12-18T03:12:24;-10.50;99.90
6291;DHT22;3178;48.730;8.990;2022-12-18T03:17:33;-10.30;99.90
6291;DHT22;3178;48.730;8.990;2022-12-18T03:20:07;-10.10;99.90
6291;DHT22;3178;48.730;8.990;2022-12-18T03:22:35;-10.00;99.90
6291;DHT22;3178;48.730;8.990;2022-12-18T03:25:05;-9.80;99.90
6291;DHT22;3178;48.730;8.990;2022-12-18T03:27:33;-9.70;99.90
6291;DHT22;3178;48.730;8.990;2022-12-18T03:30:07;-9.60;99.90
6291;DHT22;3178;48.730;8.990;2022-12-18T03:32:57;-9.50;99.90
6291;DHT22;3178;48.730;8.990;2022-12-18T03:35:28;-9.40;99.90
6291;DHT22;3178;48.730;8.990;2022-12-18T03:37:55;-9.40;99.90
6291;DHT22;3178;48.730;8.990;2022-12-18T03:40:25;-9.30;99.90
6291;DHT22;3178;48.730;8.990;2022-12-18T03:42:58;-9.20;99.90
6291;DHT22;3178;48.730;8.990;2022-12-18T03:45:36;-9.30;99.90
6291;DHT22;3178;48.730;8.990;2022-12-18T03:48:19;-9.30;99.90
6291;DHT22;3178;48.730;8.990;2022-12-18T03:53:39;-9.30;99.90
6291;DHT22;3178;48.730;8.990;2022-12-18T03:56:08;-9.30;99.90
6291;DHT22;3178;48.730;8.990;2022-12-18T03:58:36;-9.30;99.90
6291;DHT22;3178;48.730;8.990;2022-12-18T04:01:05;-9.30;99.90
6291;DHT22;3178;48.730;8.990;2022-12-18T04:03:34;-9.30;99.90
6291;DHT22;3178;48.730;8.990;2022-12-18T04:06:01;-9.30;99.90
6291;DHT22;3178;48.730;8.990;2022-12-18T04:08:27;-9.30;99.90
6291;DHT22;3178;48.730;8.990;2022-12-18T04:10:53;-9.40;99.90
6291;DHT22;3178;48.730;8.990;2022-12-18T04:13:33;-9.40;99.90
6291;DHT22;3178;48.730;8.990;2022-12-18T04:15:59;-9.30;99.90
6291;DHT22;3178;48.730;8.990;2022-12-18T04:18:25;-9.30;99.90
6291;DHT22;3178;48.730;8.990;2022-12-18T04:20:51;-9.30;99.90
6291;DHT22;3178;48.730;8.990;2022-12-18T04:23:16;-9.40;99.90
6291;DHT22;3178;48.730;8.990;2022-12-18T04:25:42;-9.40;99.90
6291;DHT22;3178;48.730;8.990;2022-12-18T04:28:07;-9.30;99.90
6291;DHT22;3178;48.730;8.990;2022-12-18T04:30:33;-9.30;99.90
6291;DHT22;3178;48.730;8.990;2022-12-18T04:32:59;-9.30;99.90
6291;DHT22;3178;48.730;8.990;2022-12-18T04:35:24;-9.20;99.90
6291;DHT22;3178;48.730;8.990;2022-12-18T04:37:50;-9.10;99.90
6291;DHT22;3178;48.730;8.990;2022-12-18T04:40:15;-9.10;99.90
6291;DHT22;3178;48.730;8.990;2022-12-18T04:42:41;-9.10;99.90
6291;DHT22;3178;48.730;8.990;2022-12-18T04:45:07;-9.00;99.90
6291;DHT22;3178;48.730;8.990;2022-12-18T04:47:33;-9.00;99.90
6291;DHT22;3178;48.730;8.990;2022-12-18T04:49:59;-9.00;99.90
6291;DHT22;3178;48.730;8.990;2022-12-18T04:52:24;-9.10;99.90
6291;DHT22;3178;48.730;8.990;2022-12-18T04:54:50;-9.10;99.90
6291;DHT22;3178;48.730;8.990;2022-12-18T04:57:15;-9.10;99.90
6291;DHT22;3178;48.730;8.990;2022-12-18T04:59:41;-9.00;99.90
6291;DHT22;3178;48.730;8.990;2022-12-18T05:02:06;-9.00;99.90
6291;DHT22;3178;48.730;8.990;2022-12-18T05:04:32;-9.00;99.90
6291;DHT22;3178;48.730;8.990;2022-12-18T05:06:57;-8.90;99.90
6291;DHT22;3178;48.730;8.990;2022-12-18T05:09:23;-8.90;99.90
6291;DHT22;3178;48.730;8.990;2022-12-18T05:11:48;-8.90;99.90
6291;DHT22;3178;48.730;8.990;2022-12-18T05:14:14;-8.90;99.90
6291;DHT22;3178;48.730;8.990;2022-12-18T05:16:39;-8.80;99.90
6291;DHT22;3178;48.730;8.990;2022-12-18T05:19:05;-8.80;99.90
6291;DHT22;3178;48.730;8.990;2022-12-18T05:21:31;-8.80;99.90
6291;DHT22;3178;48.730;8.990;2022-12-18T05:23:56;-8.70;99.90
6291;DHT22;3178;48.730;8.990;2022-12-18T05:26:22;-8.70;99.90
6291;DHT22;3178;48.730;8.990;2022-12-18T05:28:47;-8.70;99.90
6291;DHT22;3178;48.730;8.990;2022-12-18T05:31:13;-8.70;99.90
6291;DHT22;3178;48.730;8.990;2022-12-18T05:33:39;-8.60;99.90
6291;DHT22;3178;48.730;8.990;2022-12-18T05:36:06;-8.50;99.90
6291;DHT22;3178;48.730;8.990;2022-12-18T05:38:34;-8.60;99.90
6291;DHT22;3178;48.730;8.990;2022-12-18T05:41:00;-8.50;99.90
6291;DHT22;3178;48.730;8.990;2022-12-18T05:43:26;-8.50;99.90
6291;DHT22;3178;48.730;8.990;2022-12-18T05:45:53;-8.50;99.90
6291;DHT22;3178;48.730;8.990;2022-12-18T05:48:19;-8.50;99.90
6291;DHT22;3178;48.730;8.990;2022-12-18T05:50:46;-8.50;99.90
6291;DHT22;3178;48.730;8.990;2022-12-18T05:53:14;-8.50;99.90
6291;DHT22;3178;48.730;8.990;2022-12-18T05:55:40;-8.40;99.90
6291;DHT22;3178;48.730;8.990;2022-12-18T05:58:08;-8.50;99.90
6291;DHT22;3178;48.730;8.990;2022-12-18T06:00:35;-8.50;99.90
6291;DHT22;3178;48.730;8.990;2022-12-18T06:03:01;-8.50;99.90
6291;DHT22;3178;48.730;8.990;2022-12-18T06:05:27;-8.50;99.90
6291;DHT22;3178;48.730;8.990;2022-12-18T06:07:53;-8.50;99.90
6291;DHT22;3178;48.730;8.990;2022-12-18T06:10:18;-8.60;99.90
6291;DHT22;3178;48.730;8.990;2022-12-18T06:12:44;-8.60;99.90
6291;DHT22;3178;48.730;8.990;2022-12-18T06:15:10;-8.60;99.90
6291;DHT22;3178;48.730;8.990;2022-12-18T06:17:36;-8.60;99.90
6291;DHT22;3178;48.730;8.990;2022-12-18T06:20:03;-8.70;99.90
6291;DHT22;3178;48.730;8.990;2022-12-18T06:22:31;-8.80;99.90
6291;DHT22;3178;48.730;8.990;2022-12-18T06:24:56;-8.90;99.90
6291;DHT22;3178;48.730;8.990;2022-12-18T06:27:22;-8.80;99.90
6291;DHT22;3178;48.730;8.990;2022-12-18T06:29:47;-8.90;99.90
6291;DHT22;3178;48.730;8.990;2022-12-18T06:32:13;-9.00;99.90
6291;DHT22;3178;48.730;8.990;2022-12-18T06:34:38;-9.00;99.90
6291;DHT22;3178;48.730;8.990;2022-12-18T06:37:04;-9.10;99.90
6291;DHT22;3178;48.730;8.990;2022-12-18T06:39:30;-9.20;99.90
6291;DHT22;3178;48.730;8.990;2022-12-18T06:41:55;-9.30;99.90
6291;DHT22;3178;48.730;8.990;2022-12-18T06:44:21;-9.30;99.90
6291;DHT22;3178;48.730;8.990;2022-12-18T06:46:46;-9.30;99.90
6291;DHT22;3178;48.730;8.990;2022-12-18T06:49:12;-9.30;99.90
6291;DHT22;3178;48.730;8.990;2022-12-18T06:51:38;-9.30;99.90
6291;DHT22;3178;48.730;8.990;2022-12-18T06:54:03;-9.30;99.90
6291;DHT22;3178;48.730;8.990;2022-12-18T06:56:29;-9.20;99.90
6291;DHT22;3178;48.730;8.990;2022-12-18T06:58:55;-9.20;99.90
6291;DHT22;3178;48.730;8.990;2022-12-18T07:01:21;-9.20;99.90
6291;DHT22;3178;48.730;8.990;2022-12-18T07:03:51;-9.10;99.90
6291;DHT22;3178;48.730;8.990;2022-12-18T07:06:18;-9.10;99.90
6291;DHT22;3178;48.730;8.990;2022-12-18T07:08:45;-9.00;99.90
6291;DHT22;3178;48.730;8.990;2022-12-18T07:11:11;-9.00;99.90
6291;DHT22;3178;48.730;8.990;2022-12-18T07:13:37;-9.10;99.90
6291;DHT22;3178;48.730;8.990;2022-12-18T07:16:08;-9.00;99.90
6291;DHT22;3178;48.730;8.990;2022-12-18T07:18:34;-9.00;99.90
6291;DHT22;3178;48.730;8.990;2022-12-18T07:21:03;-8.90;99.90
6291;DHT22;3178;48.730;8.990;2022-12-18T07:23:29;-9.00;99.90
6291;DHT22;3178;48.730;8.990;2022-12-18T07:25:55;-8.90;99.90
6291;DHT22;3178;48.730;8.990;2022-12-18T07:28:21;-8.90;99.90
6291;DHT22;3178;48.730;8.990;2022-12-18T07:30:46;-8.90;99.90
6291;DHT22;3178;48.730;8.990;2022-12-18T07:33:12;-8.90;99.90
6291;DHT22;3178;48.730;8.990;2022-12-18T07:35:37;-8.80;99.90
6291;DHT22;3178;48.730;8.990;2022-12-18T07:38:03;-8.80;99.90
6291;DHT22;3178;48.730;8.990;2022-12-18T07:40:28;-8.80;99.90
6291;DHT22;3178;48.730;8.990;2022-12-18T07:42:54;-8.80;99.90
6291;DHT22;3178;48.730;8.990;2022-12-18T07:45:19;-8.70;99.90
6291;DHT22;3178;48.730;8.990;2022-12-18T07:47:45;-8.60;99.90
6291;DHT22;3178;48.730;8.990;2022-12-18T07:50:10;-8.60;99.90
6291;DHT22;3178;48.730;8.990;2022-12-18T07:52:36;-8.50;99.90
6291;DHT22;3178;48.730;8.990;2022-12-18T07:55:02;-8.40;99.90
6291;DHT22;3178;48.730;8.990;2022-12-18T07:57:28;-8.30;99.90
6291;DHT22;3178;48.730;8.990;2022-12-18T07:59:53;-8.20;99.90
6291;DHT22;3178;48.730;8.990;2022-12-18T08:02:19;-8.20;99.90
6291;DHT22;3178;48.730;8.990;2022-12-18T08:04:44;-8.20;99.90
6291;DHT22;3178;48.730;8.990;2022-12-18T08:07:10;-8.10;99.90
6291;DHT22;3178;48.730;8.990;2022-12-18T08:09:35;-8.00;99.90
6291;DHT22;3178;48.730;8.990;2022-12-18T08:12:01;-7.90;99.90
6291;DHT22;3178;48.730;8.990;2022-12-18T08:14:26;-7.80;99.90
6291;DHT22;3178;48.730;8.990;2022-12-18T08:16:52;-7.70;99.90
6291;DHT22;3178;48.730;8.990;2022-12-18T08:19:17;-7.50;99.90
6291;DHT22;3178;48.730;8.990;2022-12-18T08:21:43;-7.40;99.90
6291;DHT22;3178;48.730;8.990;2022-12-18T08:24:09;-7.20;99.90
6291;DHT22;3178;48.730;8.990;2022-12-18T08:26:35;-7.00;99.90
6291;DHT22;3178;48.730;8.990;2022-12-18T08:29:01;-6.80;99.90
6291;DHT22;3178;48.730;8.990;2022-12-18T08:31:28;-6.60;99.90
6291;DHT22;3178;48.730;8.990;2022-12-18T08:33:54;-6.50;99.90
6291;DHT22;3178;48.730;8.990;2022-12-18T08:36:20;-6.20;99.90
6291;DHT22;3178;48.730;8.990;2022-12-18T08:38:46;-6.10;99.90
6291;DHT22;3178;48.730;8.990;2022-12-18T08:41:14;-6.00;99.90
6291;DHT22;3178;48.730;8.990;2022-12-18T08:43:40;-5.70;99.90
6291;DHT22;3178;48.730;8.990;2022-12-18T08:46:25;-5.60;99.90
6291;DHT22;3178;48.730;8.990;2022-12-18T08:48:53;-5.30;99.90
6291;DHT22;3178;48.730;8.990;2022-12-18T08:51:20;-5.10;99.90
6291;DHT22;3178;48.730;8.990;2022-12-18T08:53:45;-4.90;99.90
6291;DHT22;3178;48.730;8.990;2022-12-18T08:56:12;-4.70;99.90
6291;DHT22;3178;48.730;8.990;2022-12-18T08:58:38;-4.50;99.90
6291;DHT22;3178;48.730;8.990;2022-12-18T09:01:07;-4.30;99.90
6291;DHT22;3178;48.730;8.990;2022-12-18T09:03:33;-4.10;99.90
6291;DHT22;3178;48.730;8.990;2022-12-18T09:05:59;-3.80;99.90
6291;DHT22;3178;48.730;8.990;2022-12-18T09:08:25;-3.60;99.90
6291;DHT22;3178;48.730;8.990;2022-12-18T09:10:51;-3.50;99.90
6291;DHT22;3178;48.730;8.990;2022-12-18T09:13:17;-3.50;99.90
6291;DHT22;3178;48.730;8.990;2022-12-18T09:15:51;-3.40;99.90
6291;DHT22;3178;48.730;8.990;2022-12-18T09:18:19;-3.30;99.90
6291;DHT22;3178;48.730;8.990;2022-12-18T09:20:45;-3.10;99.90
6291;DHT22;3178;48.730;8.990;2022-12-18T09:23:11;-3.10;99.90
6291;DHT22;3178;48.730;8.990;2022-12-18T09:25:37;-2.80;99.90
6291;DHT22;3178;48.730;8.990;2022-12-18T09:28:05;-2.80;99.90
6291;DHT22;3178;48.730;8.990;2022-12-18T09:30:31;-2.70;99.90
6291;DHT22;3178;48.730;8.990;2022-12-18T09:32:58;-2.50;99.90
6291;DHT22;3178;48.730;8.990;2022-12-18T09:35:24;-2.50;99.90
6291;DHT22;3178;48.730;8.990;2022-12-18T09:37:50;-2.30;99.90
6291;DHT22;3178;48.730;8.990;2022-12-18T09:40:22;-2.10;99.90
6291;DHT22;3178;48.730;8.990;2022-12-18T09:43:00;-1.90;99.90
6291;DHT22;3178;48.730;8.990;2022-12-18T09:45:31;-1.80;99.90
6291;DHT22;3178;48.730;8.990;2022-12-18T09:48:00;-1.60;99.90
6291;DHT22;3178;48.730;8.990;2022-12-18T09:50:31;-1.60;99.90
6291;DHT22;3178;48.730;8.990;2022-12-18T09:53:02;-1.20;99.90
6291;DHT22;3178;48.730;8.990;2022-12-18T09:55:38;-0.90;99.90
6291;DHT22;3178;48.730;8.990;2022-12-18T09:58:19;-0.80;99.90
6291;DHT22;3178;48.730;8.990;2022-12-18T10:00:46;-0.70;99.90
6291;DHT22;3178;48.730;8.990;2022-12-18T10:03:13;-0.70;99.90
6291;DHT22;3178;48.730;8.990;2022-12-18T10:08:41;-0.50;99.90
6291;DHT22;3178;48.730;8.990;2022-12-18T10:17:16;-0.10;99.90
6291;DHT22;3178;48.730;8.990;2022-12-18T10:19:54;0.00;99.90
6291;DHT22;3178;48.730;8.990;2022-12-18T10:25:20;0.10;99.90
6291;DHT22;3178;48.730;8.990;2022-12-18T10:27:47;0.10;99.90
6291;DHT22;3178;48.730;8.990;2022-12-18T10:30:15;0.30;99.90
6291;DHT22;3178;48.730;8.990;2022-12-18T10:32:42;0.20;99.90
6291;DHT22;3178;48.730;8.990;2022-12-18T10:35:19;0.20;99.90
6291;DHT22;3178;48.730;8.990;2022-12-18T10:41:00;0.40;99.90
6291;DHT22;3178;48.730;8.990;2022-12-18T10:43:34;0.50;99.90
6291;DHT22;3178;48.730;8.990;2022-12-18T10:48:48;0.30;99.90
6291;DHT22;3178;48.730;8.990;2022-12-18T10:51:29;0.50;99.90
6291;DHT22;3178;48.730;8.990;2022-12-18T10:54:04;0.50;99.90
6291;DHT22;3178;48.730;8.990;2022-12-18T10:56:33;0.20;99.90
6291;DHT22;3178;48.730;8.990;2022-12-18T10:59:04;0.30;99.90
6291;DHT22;3178;48.730;8.990;2022-12-18T11:01:52;0.50;99.90
6291;DHT22;3178;48.730;8.990;2022-12-18T11:04:31;0.70;99.90
6291;DHT22;3178;48.730;8.990;2022-12-18T11:07:02;0.90;99.90
6291;DHT22;3178;48.730;8.990;2022-12-18T11:09:31;0.80;99.90
6291;DHT22;3178;48.730;8.990;2022-12-18T11:12:21;0.90;99.90
6291;DHT22;3178;48.730;8.990;2022-12-18T11:14:47;1.10;99.90
6291;DHT22;3178;48.730;8.990;2022-12-18T11:17:29;1.40;99.90
6291;DHT22;3178;48.730;8.990;2022-12-18T11:20:00;1.50;99.90
6291;DHT22;3178;48.730;8.990;2022-12-18T11:22:32;1.30;99.90
6291;DHT22;3178;48.730;8.990;2022-12-18T11:30:38;1.60;99.90
6291;DHT22;3178;48.730;8.990;2022-12-18T11:35:50;1.90;99.90
6291;DHT22;3178;48.730;8.990;2022-12-18T11:38:22;1.80;99.90
6291;DHT22;3178;48.730;8.990;2022-12-18T11:41:05;1.80;99.90
6291;DHT22;3178;48.730;8.990;2022-12-18T11:43:54;1.60;99.90
6291;DHT22;3178;48.730;8.990;2022-12-18T11:46:49;1.30;99.90
6291;DHT22;3178;48.730;8.990;2022-12-18T11:49:26;1.40;99.90
6291;DHT22;3178;48.730;8.990;2022-12-18T11:52:01;1.40;99.90
6291;DHT22;3178;48.730;8.990;2022-12-18T11:54:28;1.40;99.90
6291;DHT22;3178;48.730;8.990;2022-12-18T12:00:00;1.20;99.90
6291;DHT22;3178;48.730;8.990;2022-12-18T12:05:30;1.20;99.90
6291;DHT22;3178;48.730;8.990;2022-12-18T12:26:56;0.20;99.90
6291;DHT22;3178;48.730;8.990;2022-12-18T12:32:01;0.10;99.90
6291;DHT22;3178;48.730;8.990;2022-12-18T12:34:48;0.00;99.90
6291;DHT22;3178;48.730;8.990;2022-12-18T12:40:20;-0.20;99.90
6291;DHT22;3178;48.730;8.990;2022-12-18T12:42:52;-0.30;99.90
6291;DHT22;3178;48.730;8.990;2022-12-18T12:48:50;-0.40;99.90
6291;DHT22;3178;48.730;8.990;2022-12-18T12:51:23;-0.40;99.90
6291;DHT22;3178;48.730;8.990;2022-12-18T12:53:50;-0.40;99.90
6291;DHT22;3178;48.730;8.990;2022-12-18T12:56:19;-0.40;99.90
6291;DHT22;3178;48.730;8.990;2022-12-18T13:01:48;-0.30;99.90
6291;DHT22;3178;48.730;8.990;2022-12-18T13:04:18;-0.40;99.90
6291;DHT22;3178;48.730;8.990;2022-12-18T13:06:51;-0.20;99.90
6291;DHT22;3178;48.730;8.990;2022-12-18T13:09:19;-0.10;99.90
6291;DHT22;3178;48.730;8.990;2022-12-18T13:11:45;0.00;99.90
6291;DHT22;3178;48.730;8.990;2022-12-18T13:14:36;-0.10;99.90
6291;DHT22;3178;48.730;8.990;2022-12-18T13:25:02;-0.20;99.90
6291;DHT22;3178;48.730;8.990;2022-12-18T13:38:23;-0.20;99.90
6291;DHT22;3178;48.730;8.990;2022-12-18T13:43:31;-0.30;99.90
6291;DHT22;3178;48.730;8.990;2022-12-18T13:46:31;-0.30;99.90
6291;DHT22;3178;48.730;8.990;2022-12-18T13:52:01;-0.40;99.90
6291;DHT22;3178;48.730;8.990;2022-12-18T13:54:33;-0.40;99.90
6291;DHT22;3178;48.730;8.990;2022-12-18T13:57:00;-0.40;99.90
6291;DHT22;3178;48.730;8.990;2022-12-18T13:59:39;-0.40;99.90
6291;DHT22;3178;48.730;8.990;2022-12-18T14:02:21;-0.50;99.90
6291;DHT22;3178;48.730;8.990;2022-12-18T14:04:48;-0.60;99.90
6291;DHT22;3178;48.730;8.990;2022-12-18T14:07:17;-0.60;99.90
6291;DHT22;3178;48.730;8.990;2022-12-18T14:09:46;-0.60;99.90
6291;DHT22;3178;48.730;8.990;2022-12-18T14:12:24;-0.60;99.90
6291;DHT22;3178;48.730;8.990;2022-12-18T14:18:19;-1.10;99.90
6291;DHT22;3178;48.730;8.990;2022-12-18T14:20:49;-1.10;99.90
6291;DHT22;3178;48.730;8.990;2022-12-18T14:24:02;-1.20;99.90
6291;DHT22;3178;48.730;8.990;2022-12-18T14:26:29;-1.20;99.90
6291;DHT22;3178;48.730;8.990;2022-12-18T14:28:57;-1.20;99.90
6291;DHT22;3178;48.730;8.990;2022-12-18T14:31:25;-1.30;99.90
6291;DHT22;3178;48.730;8.990;2022-12-18T14:33:52;-1.30;99.90
6291;DHT22;3178;48.730;8.990;2022-12-18T14:36:20;-1.30;99.90
6291;DHT22;3178;48.730;8.990;2022-12-18T14:38:54;-1.40;99.90
6291;DHT22;3178;48.730;8.990;2022-12-18T14:41:20;-1.40;99.90
6291;DHT22;3178;48.730;8.990;2022-12-18T14:43:48;-1.50;99.90
6291;DHT22;3178;48.730;8.990;2022-12-18T14:46:32;-1.60;99.90
6291;DHT22;3178;48.730;8.990;2022-12-18T14:49:32;-1.60;99.90
6291;DHT22;3178;48.730;8.990;2022-12-18T14:52:03;-1.70;99.90
6291;DHT22;3178;48.730;8.990;2022-12-18T14:54:30;-1.80;99.90
6291;DHT22;3178;48.730;8.990;2022-12-18T14:59:30;-1.90;99.90
6291;DHT22;3178;48.730;8.990;2022-12-18T15:02:22;-2.00;99.90
6291;DHT22;3178;48.730;8.990;2022-12-18T15:07:45;-2.10;99.90
6291;DHT22;3178;48.730;8.990;2022-12-18T15:13:07;-2.30;99.90
6291;DHT22;3178;48.730;8.990;2022-12-18T15:20:49;-2.50;99.90
6291;DHT22;3178;48.730;8.990;2022-12-18T15:23:36;-2.50;99.90
6291;DHT22;3178;48.730;8.990;2022-12-18T15:26:04;-2.60;99.90
6291;DHT22;3178;48.730;8.990;2022-12-18T15:28:34;-2.70;99.90
6291;DHT22;3178;48.730;8.990;2022-12-18T15:33:39;-2.80;99.90
6291;DHT22;3178;48.730;8.990;2022-12-18T15:36:09;-2.90;99.90
6291;DHT22;3178;48.730;8.990;2022-12-18T15:38:35;-2.90;99.90
6291;DHT22;3178;48.730;8.990;2022-12-18T15:41:00;-3.00;99.90
6291;DHT22;3178;48.730;8.990;2022-12-18T15:43:27;-3.10;99.90
6291;DHT22;3178;48.730;8.990;2022-12-18T15:48:26;-3.20;99.90
6291;DHT22;3178;48.730;8.990;2022-12-18T15:50:53;-3.30;99.90
6291;DHT22;3178;48.730;8.990;2022-12-18T15:53:19;-3.30;99.90
6291;DHT22;3178;48.730;8.990;2022-12-18T15:55:45;-3.30;99.90
6291;DHT22;3178;48.730;8.990;2022-12-18T15:58:29;-3.30;99.90
6291;DHT22;3178;48.730;8.990;2022-12-18T16:00:55;-3.40;99.90
6291;DHT22;3178;48.730;8.990;2022-12-18T16:03:22;-3.40;99.90
6291;DHT22;3178;48.730;8.990;2022-12-18T16:05:48;-3.40;99.90
6291;DHT22;3178;48.730;8.990;2022-12-18T16:08:13;-3.40;99.90
6291;DHT22;3178;48.730;8.990;2022-12-18T16:10:39;-3.50;99.90
6291;DHT22;3178;48.730;8.990;2022-12-18T16:13:04;-3.40;99.90
6291;DHT22;3178;48.730;8.990;2022-12-18T16:15:31;-3.50;99.90
6291;DHT22;3178;48.730;8.990;2022-12-18T16:17:56;-3.50;99.90
6291;DHT22;3178;48.730;8.990;2022-12-18T16:20:22;-3.50;99.90
6291;DHT22;3178;48.730;8.990;2022-12-18T16:22:48;-3.50;99.90
6291;DHT22;3178;48.730;8.990;2022-12-18T16:25:26;-3.50;99.90
6291;DHT22;3178;48.730;8.990;2022-12-18T16:27:52;-3.60;99.90
6291;DHT22;3178;48.730;8.990;2022-12-18T16:30:27;-3.60;99.90
6291;DHT22;3178;48.730;8.990;2022-12-18T16:32:59;-3.60;99.90
6291;DHT22;3178;48.730;8.990;2022-12-18T16:35:25;-3.60;99.90
6291;DHT22;3178;48.730;8.990;2022-12-18T16:37:51;-3.50;99.90
6291;DHT22;3178;48.730;8.990;2022-12-18T16:40:17;-3.50;99.90
6291;DHT22;3178;48.730;8.990;2022-12-18T16:42:45;-3.50;99.90
6291;DHT22;3178;48.730;8.990;2022-12-18T16:45:14;-3.50;99.90
6291;DHT22;3178;48.730;8.990;2022-12-18T16:47:40;-3.60;99.90
6291;DHT22;3178;48.730;8.990;2022-12-18T16:50:06;-3.60;99.90
6291;DHT22;3178;48.730;8.990;2022-12-18T16:52:32;-3.50;99.90
6291;DHT22;3178;48.730;8.990;2022-12-18T16:54:58;-3.60;99.90
6291;DHT22;3178;48.730;8.990;2022-12-18T16:57:24;-3.50;99.90
6291;DHT22;3178;48.730;8.990;2022-12-18T16:59:49;-3.50;99.90
6291;DHT22;3178;48.730;8.990;2022-12-18T17:02:23;-3.50;99.90
6291;DHT22;3178;48.730;8.990;2022-12-18T17:04:49;-3.50;99.90
6291;DHT22;3178;48.730;8.990;2022-12-18T17:07:14;-3.50;99.90
6291;DHT22;3178;48.730;8.990;2022-12-18T17:09:41;-3.50;99.90
6291;DHT22;3178;48.730;8.990;2022-12-18T17:12:07;-3.60;99.90
6291;DHT22;3178;48.730;8.990;2022-12-18T17:14:34;-3.50;99.90
6291;DHT22;3178;48.730;8.990;2022-12-18T17:17:00;-3.50;99.90
6291;DHT22;3178;48.730;8.990;2022-12-18T17:19:26;-3.50;99.90
6291;DHT22;3178;48.730;8.990;2022-12-18T17:21:52;-3.50;99.90
6291;DHT22;3178;48.730;8.990;2022-12-18T17:24:19;-3.50;99.90
6291;DHT22;3178;48.730;8.990;2022-12-18T17:26:45;-3.50;99.90
6291;DHT22;3178;48.730;8.990;2022-12-18T17:29:14;-3.50;99.90
6291;DHT22;3178;48.730;8.990;2022-12-18T17:31:40;-3.40;99.90
6291;DHT22;3178;48.730;8.990;2022-12-18T17:34:07;-3.40;99.90
6291;DHT22;3178;48.730;8.990;2022-12-18T17:36:33;-3.40;99.90
6291;DHT22;3178;48.730;8.990;2022-12-18T17:39:00;-3.40;99.90
6291;DHT22;3178;48.730;8.990;2022-12-18T17:41:27;-3.40;99.90
6291;DHT22;3178;48.730;8.990;2022-12-18T17:43:54;-3.40;99.90
6291;DHT22;3178;48.730;8.990;2022-12-18T17:46:20;-3.30;99.90
6291;DHT22;3178;48.730;8.990;2022-12-18T17:48:46;-3.40;99.90
6291;DHT22;3178;48.730;8.990;2022-12-18T17:51:13;-3.40;99.90
6291;DHT22;3178;48.730;8.990;2022-12-18T17:53:39;-3.40;99.90
6291;DHT22;3178;48.730;8.990;2022-12-18T17:56:05;-3.40;99.90
6291;DHT22;3178;48.730;8.990;2022-12-18T17:58:33;-3.40;99.90
6291;DHT22;3178;48.730;8.990;2022-12-18T18:01:00;-3.30;99.90
6291;DHT22;3178;48.730;8.990;2022-12-18T18:03:26;-3.30;99.90
6291;DHT22;3178;48.730;8.990;2022-12-18T18:05:56;-3.30;99.90
6291;DHT22;3178;48.730;8.990;2022-12-18T18:08:22;-3.30;99.90
6291;DHT22;3178;48.730;8.990;2022-12-18T18:10:48;-3.30;99.90
6291;DHT22;3178;48.730;8.990;2022-12-18T18:13:23;-3.20;99.90
6291;DHT22;3178;48.730;8.990;2022-12-18T18:16:08;-3.20;99.90
6291;DHT22;3178;48.730;8.990;2022-12-18T18:18:34;-3.20;99.90
6291;DHT22;3178;48.730;8.990;2022-12-18T18:21:07;-3.20;99.90